KPQI/PQI METAR and TAF weather

Enter ICAO airport designator
Station Type Date Time Source
KPQI METAR 2021/07/30 06:45 UTC NOAA

KPQI 300645Z AUTO 00000KT 10SM -RA BKN006 OVC011 15/15 A2970 RMK AO2 CIG 004V010 P0000


Station Type Date Time Source
KPQI Decoded METAR 2021/07/30 06:45 UTC NOAA

Presque Isle, ME, United States (KPQI) 46-41N 068-03W 146M
Jul 30, 2021 - 02:45 AM EDT / 2021.07.30 0645 UTC
Wind: Calm:0
Visibility: 10 mile(s):0
Sky conditions: overcast
Weather: light rain
Precipitation last hour: A trace
Temperature: 59 F (15 C)
Dew Point: 59 F (15 C)
Relative Humidity: 100%
Pressure (altimeter): 29.7 in. Hg (1005 hPa)
ob: KPQI 300645Z AUTO 00000KT 10SM -RA BKN006 OVC011 15/15 A2970 RMK AO2 CIG 004V010 P0000
cycle: 7

Station Type Date Time Source
KPQI TAF 2021/07/30 06:42 UTC NOAA

TAF KPQI 300539Z 3006/3106 17005KT P6SM -RA SCT006 OVC015
FM300900 16005KT 3SM -RA BR OVC007
FM301800 35005KT P6SM -SHRA OVC025
FM310000 31010KT P6SM VCSH BKN040

Example: see airport list